createdAt,value
2019-02-14T00:01:51.023Z,31.20
2019-02-14T00:04:22.442Z,30.95
2019-02-14T00:06:51.094Z,31.23
2019-02-14T00:09:21.278Z,32.30
2019-02-14T00:11:49.569Z,32.55
2019-02-14T00:14:17.847Z,32.13
2019-02-14T00:16:46.107Z,29.12
2019-02-14T00:19:14.406Z,33.35
2019-02-14T00:21:42.722Z,33.50
2019-02-14T00:24:11.011Z,31.57
2019-02-14T00:26:39.293Z,29.77
2019-02-14T00:29:07.564Z,30.48
2019-02-14T00:31:35.862Z,31.42
2019-02-14T00:34:04.150Z,31.73
2019-02-14T00:36:32.411Z,31.73
2019-02-14T00:39:00.695Z,30.45
2019-02-14T00:41:28.963Z,30.40
2019-02-14T00:43:57.219Z,31.87
2019-02-14T00:46:25.511Z,30.92
2019-02-14T00:48:53.807Z,32.08
2019-02-14T00:51:22.091Z,30.37
2019-02-14T00:53:50.347Z,31.07
2019-02-14T00:56:18.655Z,32.90
2019-02-14T00:58:46.913Z,30.70
2019-02-14T01:01:15.200Z,30.20
2019-02-14T01:03:43.471Z,31.30
2019-02-14T01:06:11.749Z,31.68
2019-02-14T01:08:39.993Z,31.70
2019-02-14T01:11:08.323Z,30.37
2019-02-14T01:13:36.593Z,30.32
2019-02-14T01:16:05.232Z,31.17
2019-02-14T01:18:33.480Z,32.78
2019-02-14T01:21:01.760Z,28.25
2019-02-14T01:23:30.060Z,32.55
2019-02-14T01:25:58.338Z,32.60
2019-02-14T01:28:26.603Z,33.50
2019-02-14T01:30:54.896Z,33.30
2019-02-14T01:33:23.153Z,31.65
2019-02-14T01:35:51.438Z,32.83
2019-02-14T01:38:19.720Z,33.58
2019-02-14T01:40:47.988Z,33.48
2019-02-14T01:43:16.262Z,33.00
2019-02-14T01:45:44.544Z,33.38
2019-02-14T01:48:13.052Z,35.48
2019-02-14T01:50:41.350Z,33.88
2019-02-14T01:53:09.598Z,32.00
2019-02-14T01:55:37.882Z,35.13
2019-02-14T01:58:06.225Z,34.48
2019-02-14T02:00:34.580Z,34.65
2019-02-14T02:03:02.842Z,36.08
2019-02-14T02:05:31.128Z,34.65
2019-02-14T02:07:59.399Z,36.03
2019-02-14T02:10:27.700Z,37.23
2019-02-14T02:12:56.028Z,34.43
2019-02-14T02:15:24.298Z,36.90
2019-02-14T02:17:52.664Z,35.92
2019-02-14T02:20:20.935Z,35.15
2019-02-14T02:22:49.244Z,34.75
2019-02-14T02:25:17.518Z,36.53
2019-02-14T02:27:45.800Z,35.38
2019-02-14T02:30:15.242Z,38.05
2019-02-14T02:32:43.510Z,36.45
2019-02-14T02:35:11.784Z,35.45
2019-02-14T02:37:40.064Z,35.33
2019-02-14T02:40:09.185Z,35.45
2019-02-14T02:42:37.464Z,35.45
2019-02-14T02:45:29.721Z,33.70
2019-02-14T02:47:58.004Z,34.45
2019-02-14T02:50:26.257Z,37.10
2019-02-14T02:52:54.556Z,36.50
2019-02-14T02:55:22.874Z,35.30
2019-02-14T02:57:51.167Z,36.60
2019-02-14T03:00:19.449Z,35.80
2019-02-14T03:02:47.741Z,34.95
2019-02-14T03:05:16.276Z,37.70
2019-02-14T03:07:44.562Z,35.30
2019-02-14T03:10:13.773Z,36.28
2019-02-14T03:12:42.059Z,36.80
2019-02-14T03:15:14.856Z,34.03
2019-02-14T03:17:43.236Z,29.92
2019-02-14T03:20:12.727Z,35.63
2019-02-14T03:22:41.027Z,37.65
2019-02-14T03:25:19.988Z,36.85
2019-02-14T03:27:48.278Z,36.53
2019-02-14T03:30:16.940Z,38.05
2019-02-14T03:32:45.236Z,34.00
2019-02-14T03:35:13.509Z,37.98
2019-02-14T03:41:13.691Z,37.60
2019-02-14T03:43:41.949Z,37.08
2019-02-14T03:46:11.885Z,38.05
2019-02-14T03:48:40.171Z,37.05
2019-02-14T03:51:08.453Z,38.35
2019-02-14T03:53:36.733Z,40.20
2019-02-14T03:56:04.992Z,35.52
2019-02-14T03:58:33.283Z,36.42
2019-02-14T04:01:01.547Z,40.25
2019-02-14T04:03:29.836Z,39.10
2019-02-14T04:05:58.106Z,38.63
2019-02-14T04:08:26.397Z,39.20
2019-02-14T04:10:54.709Z,39.03
2019-02-14T04:13:23.299Z,38.85
2019-02-14T04:15:51.553Z,37.42
2019-02-14T04:18:19.851Z,39.63
2019-02-14T04:20:48.114Z,38.45
2019-02-14T04:23:16.436Z,39.75
2019-02-14T04:25:44.683Z,40.08
2019-02-14T04:28:12.947Z,40.48
2019-02-14T04:30:41.223Z,38.30
2019-02-14T04:33:09.497Z,41.02
2019-02-14T04:35:37.762Z,40.60
2019-02-14T04:38:06.047Z,39.50
2019-02-14T04:40:34.314Z,42.08
2019-02-14T04:43:02.623Z,41.88
2019-02-14T04:45:30.882Z,37.85
2019-02-14T04:47:59.168Z,38.88
2019-02-14T04:50:27.484Z,36.48
2019-02-14T04:52:55.761Z,38.48
2019-02-14T04:55:24.014Z,38.30
2019-02-14T04:57:52.304Z,40.38
2019-02-14T05:00:20.607Z,39.20
2019-02-14T05:02:48.903Z,41.80
2019-02-14T05:05:17.588Z,41.42
2019-02-14T05:07:45.890Z,40.75
2019-02-14T05:10:14.138Z,39.65
2019-02-14T05:12:42.551Z,39.20
2019-02-14T05:15:11.365Z,36.03
2019-02-14T05:17:39.664Z,41.15
2019-02-14T05:20:10.840Z,40.85
2019-02-14T05:22:39.108Z,42.55
2019-02-14T05:25:10.378Z,42.25
2019-02-14T05:27:38.878Z,40.65
2019-02-14T05:30:13.129Z,40.65
2019-02-14T05:32:41.414Z,41.23
2019-02-14T05:35:09.702Z,39.42
2019-02-14T05:37:39.735Z,39.70
2019-02-14T05:40:10.896Z,42.78
2019-02-14T05:42:39.553Z,42.40
2019-02-14T05:45:12.919Z,40.78
2019-02-14T05:47:41.210Z,41.92
2019-02-14T05:50:12.072Z,43.08
2019-02-14T05:52:40.336Z,41.18
2019-02-14T05:55:10.596Z,41.02
2019-02-14T05:57:38.855Z,40.85
2019-02-14T06:00:10.546Z,41.20
2019-02-14T06:02:38.800Z,43.20
2019-02-14T06:05:07.105Z,41.75
2019-02-14T06:07:35.407Z,35.90
2019-02-14T06:10:04.808Z,39.53
2019-02-14T06:12:33.167Z,42.45
2019-02-14T06:15:01.466Z,41.90
2019-02-14T06:17:29.748Z,41.30
2019-02-14T06:19:58.051Z,44.30
2019-02-14T06:22:26.318Z,46.00
2019-02-14T06:24:54.601Z,41.42
2019-02-14T06:27:22.897Z,46.00
2019-02-14T06:29:51.226Z,42.70
2019-02-14T06:32:19.497Z,43.15
2019-02-14T06:34:47.807Z,44.27
2019-02-14T06:37:16.055Z,41.42
2019-02-14T06:39:44.331Z,43.05
2019-02-14T06:42:12.763Z,42.43
2019-02-14T06:44:41.062Z,42.65
2019-02-14T06:47:09.536Z,43.73
2019-02-14T06:49:37.841Z,42.27
2019-02-14T06:52:06.169Z,39.08
2019-02-14T06:54:35.863Z,41.83
2019-02-14T06:57:04.134Z,40.98
2019-02-14T06:59:32.431Z,45.48
2019-02-14T07:02:00.707Z,39.90
2019-02-14T07:04:28.995Z,40.50
2019-02-14T07:06:57.259Z,42.73
2019-02-14T07:09:25.537Z,43.83
2019-02-14T07:11:53.825Z,42.20
2019-02-14T07:14:22.135Z,42.20
2019-02-14T07:16:50.406Z,44.10
2019-02-14T07:19:18.701Z,43.98
2019-02-14T07:21:49.702Z,43.25
2019-02-14T07:24:18.057Z,41.83
2019-02-14T07:26:46.327Z,43.83
2019-02-14T07:29:14.715Z,42.27
2019-02-14T07:31:42.989Z,41.00
2019-02-14T07:34:14.449Z,40.85
2019-02-14T07:36:42.740Z,39.70
2019-02-14T07:39:11.184Z,42.62
2019-02-14T07:41:39.459Z,43.30
2019-02-14T07:44:10.470Z,42.50
2019-02-14T07:46:40.381Z,42.60
2019-02-14T07:49:08.655Z,43.28
2019-02-14T07:51:37.003Z,42.27
2019-02-14T07:54:05.251Z,41.18
2019-02-14T07:56:33.543Z,43.40
2019-02-14T07:59:01.812Z,40.10
2019-02-14T08:01:30.091Z,43.52
2019-02-14T08:03:58.379Z,42.90
2019-02-14T08:06:29.641Z,42.98
2019-02-14T08:08:57.910Z,43.95
2019-02-14T08:11:26.195Z,43.48
2019-02-14T08:13:55.725Z,41.23
2019-02-14T08:16:23.941Z,37.58
2019-02-14T08:18:52.264Z,40.58
2019-02-14T08:21:20.532Z,42.50
2019-02-14T08:23:48.803Z,40.98
2019-02-14T08:26:17.055Z,40.48
2019-02-14T08:28:45.381Z,43.45
2019-02-14T08:31:13.880Z,45.83
2019-02-14T08:33:42.164Z,45.50
2019-02-14T08:36:10.410Z,42.95
2019-02-14T08:38:38.687Z,43.15
2019-02-14T08:41:08.989Z,42.30
2019-02-14T08:43:37.288Z,42.65
2019-02-14T08:46:07.646Z,43.52
2019-02-14T08:48:35.898Z,40.60
2019-02-14T08:51:04.163Z,38.55
2019-02-14T08:53:32.460Z,40.78
2019-02-14T08:56:00.727Z,42.83
2019-02-14T08:58:29.003Z,42.62
2019-02-14T09:00:57.264Z,41.75
2019-02-14T09:03:25.585Z,43.42
2019-02-14T09:05:53.842Z,36.88
2019-02-14T09:08:22.206Z,43.83
2019-02-14T09:10:50.417Z,43.63
2019-02-14T09:13:18.761Z,36.55
2019-02-14T09:15:47.017Z,41.08
2019-02-14T09:18:18.417Z,42.80
2019-02-14T09:20:46.694Z,39.60
2019-02-14T09:23:14.921Z,40.55
2019-02-14T09:25:43.473Z,41.02
2019-02-14T09:28:12.072Z,40.90
2019-02-14T09:30:40.714Z,40.30
2019-02-14T09:33:10.717Z,37.38
2019-02-14T09:35:39.275Z,36.08
2019-02-14T09:38:07.951Z,38.92
2019-02-14T09:40:37.943Z,37.45
2019-02-14T09:43:06.527Z,36.88
2019-02-14T09:45:35.092Z,40.03
2019-02-14T09:48:03.546Z,40.30
2019-02-14T09:50:31.822Z,37.67
2019-02-14T09:53:02.081Z,39.03
2019-02-14T09:55:30.364Z,38.78
2019-02-14T09:57:58.628Z,37.38
2019-02-14T10:00:26.906Z,38.33
2019-02-14T10:02:55.170Z,35.90
2019-02-14T10:05:23.447Z,34.60
2019-02-14T10:07:51.696Z,37.05
2019-02-14T10:10:21.618Z,37.55
2019-02-14T10:12:49.883Z,37.35
2019-02-14T10:15:18.167Z,36.35
2019-02-14T10:17:46.415Z,37.88
2019-02-14T10:20:17.256Z,38.28
2019-02-14T10:22:45.566Z,38.15
2019-02-14T10:25:14.167Z,37.17
2019-02-14T10:27:42.412Z,35.58
2019-02-14T10:30:13.437Z,36.15
2019-02-14T10:32:41.697Z,37.15
2019-02-14T10:35:09.968Z,36.48
2019-02-14T10:37:38.214Z,36.55
2019-02-14T10:40:12.066Z,37.40
2019-02-14T10:42:40.361Z,37.53
2019-02-14T10:45:16.584Z,37.03
2019-02-14T10:47:44.855Z,36.60
2019-02-14T10:50:13.136Z,36.42
2019-02-14T10:52:41.407Z,37.05
2019-02-14T10:55:11.718Z,37.78
2019-02-14T10:57:39.981Z,34.27
2019-02-14T11:00:17.308Z,33.67
2019-02-14T11:02:45.941Z,36.28
2019-02-14T11:05:14.959Z,37.93
2019-02-14T11:07:45.934Z,36.83
2019-02-14T11:10:18.069Z,35.10
2019-02-14T11:12:46.353Z,36.33
2019-02-14T11:15:21.852Z,35.05
2019-02-14T11:17:50.146Z,34.00
2019-02-14T11:20:18.422Z,32.03
2019-02-14T11:22:48.800Z,31.42
2019-02-14T11:25:19.795Z,31.00
2019-02-14T11:27:48.053Z,32.70
2019-02-14T11:30:16.411Z,28.73
2019-02-14T11:32:44.741Z,29.67
2019-02-14T11:35:13.014Z,31.07
2019-02-14T11:37:41.268Z,29.95
2019-02-14T11:40:11.600Z,31.05
2019-02-14T11:42:39.867Z,29.32
2019-02-14T11:45:22.353Z,28.60
2019-02-14T11:47:50.610Z,27.85
2019-02-14T11:50:19.029Z,25.08
2019-02-14T11:52:47.278Z,29.20
2019-02-14T11:55:15.552Z,25.75
2019-02-14T11:57:44.186Z,28.75
2019-02-14T12:00:18.830Z,26.60
2019-02-14T12:02:55.129Z,27.80
2019-02-14T12:05:17.651Z,24.63
2019-02-14T12:07:45.913Z,25.60
2019-02-14T12:10:14.550Z,25.02
2019-02-14T12:12:42.819Z,27.10
2019-02-14T12:15:12.326Z,26.45
2019-02-14T12:17:40.581Z,25.77
2019-02-14T12:20:14.066Z,25.17
2019-02-14T12:22:46.636Z,24.82
2019-02-14T12:25:15.175Z,24.45
2019-02-14T12:27:43.429Z,25.25
2019-02-14T12:30:13.640Z,24.92
2019-02-14T12:32:44.005Z,23.22
2019-02-14T12:35:12.269Z,24.45
2019-02-14T12:37:40.533Z,21.77
2019-02-14T12:40:13.642Z,22.87
2019-02-14T12:42:41.981Z,22.32
2019-02-14T12:45:20.544Z,22.45
2019-02-14T12:47:45.917Z,22.05
2019-02-14T12:50:14.200Z,20.85
2019-02-14T12:52:42.478Z,20.97
2019-02-14T12:55:10.755Z,20.02
2019-02-14T12:57:44.061Z,22.17
2019-02-14T13:00:19.492Z,19.75
2019-02-14T13:02:47.779Z,18.62
2019-02-14T13:05:16.068Z,17.95
2019-02-14T13:07:44.333Z,16.37
2019-02-14T13:10:36.337Z,15.53
2019-02-14T13:13:04.593Z,11.53
2019-02-14T13:15:32.863Z,11.00
2019-02-14T13:18:01.153Z,10.60
2019-02-14T13:20:29.424Z,11.40
2019-02-14T13:22:57.720Z,10.93
2019-02-14T13:25:26.001Z,11.65
2019-02-14T13:27:54.328Z,12.23
2019-02-14T13:30:26.956Z,10.95
2019-02-14T13:32:55.236Z,11.22
2019-02-14T13:35:23.490Z,10.80
2019-02-14T13:37:51.800Z,10.00
2019-02-14T13:40:20.051Z,9.35
2019-02-14T13:42:48.386Z,9.30
2019-02-14T13:45:22.196Z,8.48
2019-02-14T13:47:50.471Z,8.10
2019-02-14T13:50:18.735Z,8.58
2019-02-14T13:52:47.099Z,8.50
2019-02-14T13:55:15.349Z,8.55
2019-02-14T13:57:44.027Z,7.70
2019-02-14T14:00:18.237Z,8.40
2019-02-14T14:02:46.509Z,8.05
2019-02-14T14:05:14.762Z,8.70
2019-02-14T14:07:43.061Z,9.25
2019-02-14T14:10:11.331Z,9.98
2019-02-14T14:12:39.589Z,9.80
2019-02-14T14:15:09.487Z,9.63
2019-02-14T14:17:37.759Z,9.78
2019-02-14T14:20:07.473Z,10.43
2019-02-14T14:22:35.756Z,8.93
2019-02-14T14:25:05.261Z,9.48
2019-02-14T14:27:33.532Z,8.90
2019-02-14T14:30:01.806Z,8.83
2019-02-14T14:32:30.072Z,9.40
2019-02-14T14:34:58.361Z,8.68
2019-02-14T14:37:26.613Z,10.13
2019-02-14T14:39:54.884Z,9.28
2019-02-14T14:42:41.260Z,9.68
2019-02-14T14:45:11.172Z,9.48
2019-02-14T14:47:39.450Z,9.38
2019-02-14T14:50:08.283Z,9.80
2019-02-14T14:52:36.604Z,9.28
2019-02-14T14:55:05.754Z,8.78
2019-02-14T14:57:34.021Z,8.90
2019-02-14T15:00:02.285Z,9.68
2019-02-14T15:02:30.542Z,8.85
2019-02-14T15:04:58.811Z,9.95
2019-02-14T15:07:27.072Z,9.78
2019-02-14T15:09:57.614Z,9.40
2019-02-14T15:12:25.342Z,10.08
2019-02-14T15:14:53.615Z,8.50
2019-02-14T15:17:21.872Z,9.15
2019-02-14T15:19:50.149Z,8.33
2019-02-14T15:22:18.420Z,8.90
2019-02-14T15:24:46.718Z,10.00
2019-02-14T15:27:14.994Z,8.23
2019-02-14T15:29:43.430Z,9.60
2019-02-14T15:32:11.694Z,10.23
2019-02-14T15:34:39.969Z,9.58
2019-02-14T15:40:49.218Z,9.48
2019-02-14T15:43:17.478Z,9.68
2019-02-14T15:45:45.956Z,8.75
2019-02-14T15:48:50.846Z,9.00
2019-02-14T15:51:21.212Z,10.30
2019-02-14T15:53:49.494Z,10.48
2019-02-14T15:56:17.783Z,10.00
2019-02-14T15:58:46.124Z,9.90
2019-02-14T16:01:16.577Z,9.50
2019-02-14T16:03:48.074Z,10.28
2019-02-14T16:06:17.990Z,9.08
2019-02-14T16:08:47.166Z,9.68
2019-02-14T16:11:25.066Z,9.43
2019-02-14T16:13:54.961Z,9.70
2019-02-14T16:16:26.103Z,9.90
2019-02-14T16:18:54.384Z,9.80
2019-02-14T16:21:22.737Z,10.28
2019-02-14T16:23:52.938Z,10.38
2019-02-14T16:26:21.045Z,9.95
2019-02-14T16:28:49.305Z,9.73
2019-02-14T16:31:17.640Z,9.95
2019-02-14T16:33:47.967Z,10.58
2019-02-14T16:36:16.255Z,10.25
2019-02-14T16:38:44.522Z,10.45
2019-02-14T16:41:12.803Z,10.63
2019-02-14T16:43:41.059Z,10.25
2019-02-14T16:46:09.367Z,10.58
2019-02-14T16:48:37.629Z,11.10
2019-02-14T16:51:05.905Z,9.85
2019-02-14T16:53:34.152Z,9.30
2019-02-14T16:56:05.302Z,11.03
2019-02-14T16:58:33.607Z,10.98
2019-02-14T17:01:01.864Z,12.03
2019-02-14T17:03:30.152Z,10.93
2019-02-14T17:05:58.634Z,9.15
2019-02-14T17:08:26.862Z,9.60
2019-02-14T17:10:55.153Z,10.70
2019-02-14T17:13:23.448Z,11.33
2019-02-14T17:15:56.066Z,10.98
2019-02-14T17:18:24.384Z,10.80
2019-02-14T17:20:52.671Z,11.15
2019-02-14T17:23:20.930Z,11.50
2019-02-14T17:25:49.222Z,11.65
2019-02-14T17:28:17.486Z,10.82
2019-02-14T17:30:45.766Z,11.73
2019-02-14T17:33:14.040Z,11.70
2019-02-14T17:35:42.396Z,10.90
2019-02-14T17:38:10.676Z,11.75
2019-02-14T17:40:45.741Z,10.90
2019-02-14T17:43:08.946Z,12.37
2019-02-14T17:45:37.239Z,11.10
2019-02-14T17:48:05.503Z,11.28
2019-02-14T17:50:33.763Z,11.90
2019-02-14T17:53:02.047Z,9.90
2019-02-14T17:55:30.316Z,12.90
2019-02-14T17:57:58.599Z,11.83
2019-02-14T18:00:27.943Z,12.15
2019-02-14T18:02:56.231Z,12.40
2019-02-14T18:05:24.504Z,12.90
2019-02-14T18:07:52.791Z,12.78
2019-02-14T18:10:21.055Z,12.78
2019-02-14T18:12:49.306Z,11.15
2019-02-14T18:15:19.815Z,13.00
2019-02-14T18:17:48.107Z,12.75
2019-02-14T18:20:16.370Z,13.43
2019-02-14T18:22:44.664Z,11.80
2019-02-14T18:25:13.110Z,12.30
2019-02-14T18:27:41.464Z,14.05
2019-02-14T18:30:13.031Z,13.10
2019-02-14T18:32:41.330Z,12.33
2019-02-14T18:35:13.395Z,13.80
2019-02-14T18:37:41.684Z,14.20
2019-02-14T18:40:11.047Z,13.98
2019-02-14T18:42:42.138Z,14.05
2019-02-14T18:45:12.454Z,13.80
2019-02-14T18:47:40.721Z,13.75
2019-02-14T18:50:11.915Z,13.38
2019-02-14T18:52:40.193Z,13.83
2019-02-14T18:55:10.105Z,13.90
2019-02-14T18:57:38.376Z,11.97
2019-02-14T19:00:10.630Z,12.45
2019-02-14T19:02:38.973Z,13.65
2019-02-14T19:05:09.613Z,12.30
2019-02-14T19:07:37.888Z,13.22
2019-02-14T19:10:09.420Z,13.65
2019-02-14T19:12:37.697Z,12.85
2019-02-14T19:15:08.296Z,13.50
2019-02-14T19:17:36.727Z,13.05
2019-02-14T19:20:08.023Z,13.62
2019-02-14T19:22:36.311Z,14.00
2019-02-14T19:25:05.600Z,13.50
2019-02-14T19:27:33.944Z,13.48
2019-02-14T19:30:02.216Z,13.35
2019-02-14T19:32:30.506Z,14.65
2019-02-14T19:34:58.782Z,14.28
2019-02-14T19:37:27.064Z,13.35
2019-02-14T19:39:55.334Z,12.78
2019-02-14T19:42:23.674Z,14.75
2019-02-14T19:44:51.959Z,14.85
2019-02-14T19:47:20.237Z,14.35
2019-02-14T19:49:48.582Z,14.40
2019-02-14T19:52:16.855Z,14.00
2019-02-14T19:54:45.113Z,14.03
2019-02-14T19:57:13.470Z,13.20
2019-02-14T19:59:41.747Z,15.30
2019-02-14T20:02:10.098Z,14.68
2019-02-14T20:04:43.093Z,13.90
2019-02-14T20:07:11.352Z,13.28
2019-02-14T20:09:41.508Z,13.40
2019-02-14T20:12:09.664Z,13.05
2019-02-14T20:14:37.972Z,12.33
2019-02-14T20:17:07.104Z,13.28
2019-02-14T20:19:35.424Z,11.08
2019-02-14T20:22:03.721Z,12.30
2019-02-14T20:24:32.021Z,12.82
2019-02-14T20:27:00.298Z,13.10
2019-02-14T20:29:28.573Z,12.70
2019-02-14T20:31:56.848Z,12.60
2019-02-14T20:34:25.135Z,14.15
2019-02-14T20:36:53.409Z,14.98
2019-02-14T20:39:21.760Z,13.28
2019-02-14T20:41:50.033Z,12.60
2019-02-14T20:44:18.668Z,12.65
2019-02-14T20:46:46.938Z,12.28
2019-02-14T20:49:15.216Z,11.75
2019-02-14T20:51:43.500Z,12.75
2019-02-14T20:54:11.803Z,12.80
2019-02-14T20:56:40.093Z,14.10
2019-02-14T20:59:08.377Z,14.03
2019-02-14T21:01:38.325Z,12.37
2019-02-14T21:04:06.605Z,14.23
2019-02-14T21:06:34.893Z,13.60
2019-02-14T21:09:04.457Z,14.30
2019-02-14T21:11:36.346Z,13.53
2019-02-14T21:14:04.614Z,14.68
2019-02-14T21:16:32.899Z,14.43
2019-02-14T21:19:01.195Z,14.63
2019-02-14T21:21:29.452Z,14.95
2019-02-14T21:23:59.858Z,16.07
2019-02-14T21:26:27.942Z,14.85
2019-02-14T21:28:56.242Z,14.75
2019-02-14T21:31:24.530Z,15.68
2019-02-14T21:33:54.409Z,15.75
2019-02-14T21:36:24.111Z,12.05
2019-02-14T21:38:52.369Z,14.73
2019-02-14T21:41:22.310Z,15.43
2019-02-14T21:43:50.640Z,14.05
2019-02-14T21:46:19.056Z,14.93
2019-02-14T21:48:47.312Z,13.93
2019-02-14T21:51:15.595Z,14.58
2019-02-14T21:53:43.882Z,14.35
2019-02-14T21:56:15.076Z,14.65
2019-02-14T21:58:43.341Z,14.25
2019-02-14T22:01:12.195Z,14.03
2019-02-14T22:03:43.426Z,13.45
2019-02-14T22:06:11.715Z,12.37
2019-02-14T22:08:41.791Z,13.83
2019-02-14T22:11:12.818Z,15.70
2019-02-14T22:13:43.205Z,15.43
2019-02-14T22:16:11.088Z,13.30
2019-02-14T22:18:42.583Z,12.55
2019-02-14T22:21:10.943Z,12.58
2019-02-14T22:23:40.934Z,12.80
2019-02-14T22:26:10.841Z,15.10
2019-02-14T22:28:39.124Z,13.88
2019-02-14T22:31:08.143Z,13.43
2019-02-14T22:33:37.496Z,14.53
2019-02-14T22:36:06.778Z,13.78
2019-02-14T22:38:36.694Z,13.72
2019-02-14T22:41:05.358Z,13.90
2019-02-14T22:43:33.613Z,14.40
2019-02-14T22:46:03.718Z,14.33
2019-02-14T22:48:32.050Z,15.08
2019-02-14T22:51:00.519Z,13.78
2019-02-14T22:53:28.834Z,13.08
2019-02-14T22:55:57.065Z,14.03
2019-02-14T22:58:25.333Z,13.70
2019-02-14T23:00:55.900Z,14.35
2019-02-14T23:03:27.814Z,14.45
2019-02-14T23:05:56.042Z,14.28
2019-02-14T23:11:56.325Z,13.20
2019-02-14T23:14:24.583Z,14.07
2019-02-14T23:16:52.960Z,14.85
2019-02-14T23:19:21.223Z,13.40
2019-02-14T23:21:53.962Z,13.08
2019-02-14T23:24:22.232Z,13.38
2019-02-14T23:30:22.395Z,14.58
2019-02-14T23:32:50.663Z,14.43
2019-02-14T23:35:18.931Z,11.65
2019-02-14T23:37:47.240Z,13.43
2019-02-14T23:40:15.499Z,14.25
2019-02-14T23:42:43.783Z,12.45
2019-02-14T23:45:12.061Z,14.63
2019-02-14T23:47:40.337Z,14.78
2019-02-14T23:50:10.721Z,13.80
2019-02-14T23:52:38.997Z,15.03
2019-02-14T23:55:08.990Z,14.43
2019-02-14T23:57:37.300Z,14.95
